sensor_id;sensor_type;location;lat;lon;timestamp;P1;durP1;ratioP1;P2;durP2;ratioP2
21480;SDS011;10902;48.158;8.634;2022-12-18T00:02:21;60.63;;;32.38;;
21480;SDS011;10902;48.158;8.634;2022-12-18T00:04:47;56.50;;;31.65;;
21480;SDS011;10902;48.158;8.634;2022-12-18T00:07:12;57.83;;;32.80;;
21480;SDS011;10902;48.158;8.634;2022-12-18T00:09:38;55.67;;;31.77;;
21480;SDS011;10902;48.158;8.634;2022-12-18T00:12:03;57.13;;;31.30;;
21480;SDS011;10902;48.158;8.634;2022-12-18T00:14:29;55.83;;;30.85;;
21480;SDS011;10902;48.158;8.634;2022-12-18T00:16:55;55.03;;;29.90;;
21480;SDS011;10902;48.158;8.634;2022-12-18T00:19:20;52.05;;;28.00;;
21480;SDS011;10902;48.158;8.634;2022-12-18T00:21:46;60.97;;;30.27;;
21480;SDS011;10902;48.158;8.634;2022-12-18T00:24:11;55.97;;;31.02;;
21480;SDS011;10902;48.158;8.634;2022-12-18T00:26:38;56.50;;;30.58;;
21480;SDS011;10902;48.158;8.634;2022-12-18T00:29:08;57.38;;;31.67;;
21480;SDS011;10902;48.158;8.634;2022-12-18T00:31:37;59.10;;;30.92;;
21480;SDS011;10902;48.158;8.634;2022-12-18T00:34:03;55.78;;;28.98;;
21480;SDS011;10902;48.158;8.634;2022-12-18T00:36:30;59.25;;;28.73;;
21480;SDS011;10902;48.158;8.634;2022-12-18T00:38:58;62.90;;;30.38;;
21480;SDS011;10902;48.158;8.634;2022-12-18T00:41:25;68.45;;;28.85;;
21480;SDS011;10902;48.158;8.634;2022-12-18T00:44:11;62.97;;;30.13;;
21480;SDS011;10902;48.158;8.634;2022-12-18T00:46:38;58.35;;;28.77;;
21480;SDS011;10902;48.158;8.634;2022-12-18T00:49:05;71.88;;;30.80;;
21480;SDS011;10902;48.158;8.634;2022-12-18T00:51:30;64.82;;;31.63;;
21480;SDS011;10902;48.158;8.634;2022-12-18T00:53:56;70.53;;;29.02;;
21480;SDS011;10902;48.158;8.634;2022-12-18T00:56:22;64.45;;;29.17;;
21480;SDS011;10902;48.158;8.634;2022-12-18T00:58:48;61.38;;;30.55;;
21480;SDS011;10902;48.158;8.634;2022-12-18T01:01:14;64.88;;;29.27;;
21480;SDS011;10902;48.158;8.634;2022-12-18T01:03:40;64.75;;;28.48;;
21480;SDS011;10902;48.158;8.634;2022-12-18T01:06:10;67.07;;;30.67;;
21480;SDS011;10902;48.158;8.634;2022-12-18T01:08:36;64.97;;;31.33;;
21480;SDS011;10902;48.158;8.634;2022-12-18T01:11:36;70.00;;;30.85;;
21480;SDS011;10902;48.158;8.634;2022-12-18T01:13:54;65.25;;;30.23;;
21480;SDS011;10902;48.158;8.634;2022-12-18T01:16:20;63.22;;;29.00;;
21480;SDS011;10902;48.158;8.634;2022-12-18T01:18:47;66.38;;;30.75;;
21480;SDS011;10902;48.158;8.634;2022-12-18T01:21:16;63.35;;;30.13;;
21480;SDS011;10902;48.158;8.634;2022-12-18T01:23:45;65.15;;;30.73;;
21480;SDS011;10902;48.158;8.634;2022-12-18T01:26:12;62.22;;;30.85;;
21480;SDS011;10902;48.158;8.634;2022-12-18T01:28:42;68.20;;;32.22;;
21480;SDS011;10902;48.158;8.634;2022-12-18T01:31:11;66.85;;;31.77;;
21480;SDS011;10902;48.158;8.634;2022-12-18T01:33:40;72.38;;;31.42;;
21480;SDS011;10902;48.158;8.634;2022-12-18T01:36:06;67.70;;;31.27;;
21480;SDS011;10902;48.158;8.634;2022-12-18T01:38:31;68.40;;;30.17;;
21480;SDS011;10902;48.158;8.634;2022-12-18T01:40:58;71.15;;;30.80;;
21480;SDS011;10902;48.158;8.634;2022-12-18T01:43:45;73.93;;;30.67;;
21480;SDS011;10902;48.158;8.634;2022-12-18T01:46:12;70.15;;;30.08;;
21480;SDS011;10902;48.158;8.634;2022-12-18T01:48:39;69.00;;;28.98;;
21480;SDS011;10902;48.158;8.634;2022-12-18T01:51:06;72.50;;;30.95;;
21480;SDS011;10902;48.158;8.634;2022-12-18T01:53:33;71.25;;;31.25;;
21480;SDS011;10902;48.158;8.634;2022-12-18T01:55:59;68.03;;;30.00;;
21480;SDS011;10902;48.158;8.634;2022-12-18T02:01:20;67.28;;;27.80;;
21480;SDS011;10902;48.158;8.634;2022-12-18T02:03:47;66.40;;;26.73;;
21480;SDS011;10902;48.158;8.634;2022-12-18T02:06:18;71.22;;;28.42;;
21480;SDS011;10902;48.158;8.634;2022-12-18T02:09:09;64.75;;;27.77;;
21480;SDS011;10902;48.158;8.634;2022-12-18T02:11:42;70.88;;;30.00;;
21480;SDS011;10902;48.158;8.634;2022-12-18T02:17:30;59.88;;;26.38;;
21480;SDS011;10902;48.158;8.634;2022-12-18T02:22:48;63.30;;;25.50;;
21480;SDS011;10902;48.158;8.634;2022-12-18T02:28:18;62.65;;;25.38;;
21480;SDS011;10902;48.158;8.634;2022-12-18T02:30:47;62.47;;;25.90;;
21480;SDS011;10902;48.158;8.634;2022-12-18T02:33:15;59.42;;;25.67;;
21480;SDS011;10902;48.158;8.634;2022-12-18T02:35:42;59.75;;;26.50;;
21480;SDS011;10902;48.158;8.634;2022-12-18T02:38:10;66.60;;;26.67;;
21480;SDS011;10902;48.158;8.634;2022-12-18T02:40:36;67.50;;;26.00;;
21480;SDS011;10902;48.158;8.634;2022-12-18T02:43:09;59.55;;;24.98;;
21480;SDS011;10902;48.158;8.634;2022-12-18T02:45:45;66.63;;;26.45;;
21480;SDS011;10902;48.158;8.634;2022-12-18T02:48:12;54.08;;;25.40;;
21480;SDS011;10902;48.158;8.634;2022-12-18T02:50:40;61.13;;;25.55;;
21480;SDS011;10902;48.158;8.634;2022-12-18T02:53:32;61.20;;;24.73;;
21480;SDS011;10902;48.158;8.634;2022-12-18T02:56:06;65.15;;;27.00;;
21480;SDS011;10902;48.158;8.634;2022-12-18T03:03:47;62.42;;;26.67;;
21480;SDS011;10902;48.158;8.634;2022-12-18T03:06:20;66.32;;;25.63;;
21480;SDS011;10902;48.158;8.634;2022-12-18T03:09:09;66.57;;;25.05;;
21480;SDS011;10902;48.158;8.634;2022-12-18T03:11:40;66.90;;;26.92;;
21480;SDS011;10902;48.158;8.634;2022-12-18T03:14:29;60.58;;;26.17;;
21480;SDS011;10902;48.158;8.634;2022-12-18T03:16:57;68.53;;;26.65;;
21480;SDS011;10902;48.158;8.634;2022-12-18T03:19:27;64.88;;;26.38;;
21480;SDS011;10902;48.158;8.634;2022-12-18T03:21:55;62.25;;;26.38;;
21480;SDS011;10902;48.158;8.634;2022-12-18T03:24:24;65.90;;;27.33;;
21480;SDS011;10902;48.158;8.634;2022-12-18T03:26:52;65.53;;;25.58;;
21480;SDS011;10902;48.158;8.634;2022-12-18T03:29:26;65.15;;;25.45;;
21480;SDS011;10902;48.158;8.634;2022-12-18T03:31:54;58.30;;;25.08;;
21480;SDS011;10902;48.158;8.634;2022-12-18T03:34:26;65.85;;;26.40;;
21480;SDS011;10902;48.158;8.634;2022-12-18T03:36:55;68.22;;;27.92;;
21480;SDS011;10902;48.158;8.634;2022-12-18T03:39:22;65.05;;;25.80;;
21480;SDS011;10902;48.158;8.634;2022-12-18T03:41:55;70.25;;;27.05;;
21480;SDS011;10902;48.158;8.634;2022-12-18T03:44:50;67.22;;;25.80;;
21480;SDS011;10902;48.158;8.634;2022-12-18T03:49:57;74.65;;;27.63;;
21480;SDS011;10902;48.158;8.634;2022-12-18T03:55:09;67.07;;;26.25;;
21480;SDS011;10902;48.158;8.634;2022-12-18T03:57:36;72.68;;;26.90;;
21480;SDS011;10902;48.158;8.634;2022-12-18T04:00:05;68.18;;;26.25;;
21480;SDS011;10902;48.158;8.634;2022-12-18T04:02:36;72.47;;;28.60;;
21480;SDS011;10902;48.158;8.634;2022-12-18T04:05:05;72.13;;;27.83;;
21480;SDS011;10902;48.158;8.634;2022-12-18T04:07:33;70.97;;;27.23;;
21480;SDS011;10902;48.158;8.634;2022-12-18T04:09:59;78.90;;;27.20;;
21480;SDS011;10902;48.158;8.634;2022-12-18T04:12:28;70.43;;;27.95;;
21480;SDS011;10902;48.158;8.634;2022-12-18T04:14:54;76.05;;;26.75;;
21480;SDS011;10902;48.158;8.634;2022-12-18T04:17:20;66.13;;;25.60;;
21480;SDS011;10902;48.158;8.634;2022-12-18T04:19:46;66.22;;;25.95;;
21480;SDS011;10902;48.158;8.634;2022-12-18T04:22:12;64.57;;;25.38;;
21480;SDS011;10902;48.158;8.634;2022-12-18T04:24:37;60.17;;;25.90;;
21480;SDS011;10902;48.158;8.634;2022-12-18T04:27:03;64.28;;;24.65;;
21480;SDS011;10902;48.158;8.634;2022-12-18T04:29:30;62.38;;;24.65;;
21480;SDS011;10902;48.158;8.634;2022-12-18T04:31:55;68.15;;;25.20;;
21480;SDS011;10902;48.158;8.634;2022-12-18T04:34:21;58.42;;;22.95;;
21480;SDS011;10902;48.158;8.634;2022-12-18T04:36:47;63.67;;;24.52;;
21480;SDS011;10902;48.158;8.634;2022-12-18T04:39:13;62.97;;;24.15;;
21480;SDS011;10902;48.158;8.634;2022-12-18T04:41:39;61.10;;;24.65;;
21480;SDS011;10902;48.158;8.634;2022-12-18T04:44:04;62.05;;;23.67;;
21480;SDS011;10902;48.158;8.634;2022-12-18T04:46:30;60.90;;;24.15;;
21480;SDS011;10902;48.158;8.634;2022-12-18T04:48:55;64.10;;;24.73;;
21480;SDS011;10902;48.158;8.634;2022-12-18T04:51:21;63.28;;;24.73;;
21480;SDS011;10902;48.158;8.634;2022-12-18T04:53:47;61.42;;;24.75;;
21480;SDS011;10902;48.158;8.634;2022-12-18T04:56:13;56.60;;;23.38;;
21480;SDS011;10902;48.158;8.634;2022-12-18T04:58:40;57.50;;;23.85;;
21480;SDS011;10902;48.158;8.634;2022-12-18T05:01:07;63.30;;;24.55;;
21480;SDS011;10902;48.158;8.634;2022-12-18T05:03:33;60.08;;;25.13;;
21480;SDS011;10902;48.158;8.634;2022-12-18T05:06:00;64.65;;;24.92;;
21480;SDS011;10902;48.158;8.634;2022-12-18T05:08:25;60.95;;;24.60;;
21480;SDS011;10902;48.158;8.634;2022-12-18T05:10:58;61.35;;;23.67;;
21480;SDS011;10902;48.158;8.634;2022-12-18T05:13:25;62.88;;;25.30;;
21480;SDS011;10902;48.158;8.634;2022-12-18T05:15:51;66.78;;;25.25;;
21480;SDS011;10902;48.158;8.634;2022-12-18T05:18:17;58.13;;;24.17;;
21480;SDS011;10902;48.158;8.634;2022-12-18T05:20:43;62.88;;;25.10;;
21480;SDS011;10902;48.158;8.634;2022-12-18T05:23:08;55.80;;;22.98;;
21480;SDS011;10902;48.158;8.634;2022-12-18T05:25:34;60.65;;;23.50;;
21480;SDS011;10902;48.158;8.634;2022-12-18T05:27:59;56.28;;;22.33;;
21480;SDS011;10902;48.158;8.634;2022-12-18T05:30:25;58.55;;;24.58;;
21480;SDS011;10902;48.158;8.634;2022-12-18T05:32:51;57.88;;;23.52;;
21480;SDS011;10902;48.158;8.634;2022-12-18T05:35:16;62.90;;;24.75;;
21480;SDS011;10902;48.158;8.634;2022-12-18T05:37:42;55.42;;;24.15;;
21480;SDS011;10902;48.158;8.634;2022-12-18T05:40:08;57.20;;;22.63;;
21480;SDS011;10902;48.158;8.634;2022-12-18T05:42:34;55.40;;;23.40;;
21480;SDS011;10902;48.158;8.634;2022-12-18T05:44:59;57.55;;;23.95;;
21480;SDS011;10902;48.158;8.634;2022-12-18T05:47:26;55.83;;;23.52;;
21480;SDS011;10902;48.158;8.634;2022-12-18T05:49:52;57.65;;;23.88;;
21480;SDS011;10902;48.158;8.634;2022-12-18T05:52:18;61.47;;;24.30;;
21480;SDS011;10902;48.158;8.634;2022-12-18T05:54:43;50.42;;;21.35;;
21480;SDS011;10902;48.158;8.634;2022-12-18T05:57:09;53.08;;;22.33;;
21480;SDS011;10902;48.158;8.634;2022-12-18T05:59:35;56.05;;;22.88;;
21480;SDS011;10902;48.158;8.634;2022-12-18T06:02:00;60.88;;;24.00;;
21480;SDS011;10902;48.158;8.634;2022-12-18T06:04:27;60.63;;;24.25;;
21480;SDS011;10902;48.158;8.634;2022-12-18T06:06:55;54.58;;;22.85;;
21480;SDS011;10902;48.158;8.634;2022-12-18T06:09:21;59.53;;;23.90;;
21480;SDS011;10902;48.158;8.634;2022-12-18T06:11:47;52.15;;;21.42;;
21480;SDS011;10902;48.158;8.634;2022-12-18T06:14:12;46.58;;;20.38;;
21480;SDS011;10902;48.158;8.634;2022-12-18T06:16:38;60.08;;;23.85;;
21480;SDS011;10902;48.158;8.634;2022-12-18T06:19:04;56.83;;;22.63;;
21480;SDS011;10902;48.158;8.634;2022-12-18T06:21:31;61.53;;;23.58;;
21480;SDS011;10902;48.158;8.634;2022-12-18T06:23:57;58.67;;;22.50;;
21480;SDS011;10902;48.158;8.634;2022-12-18T06:26:23;52.53;;;22.00;;
21480;SDS011;10902;48.158;8.634;2022-12-18T06:28:49;55.92;;;21.92;;
21480;SDS011;10902;48.158;8.634;2022-12-18T06:31:15;57.55;;;23.70;;
21480;SDS011;10902;48.158;8.634;2022-12-18T06:33:40;60.78;;;24.40;;
21480;SDS011;10902;48.158;8.634;2022-12-18T06:36:07;58.75;;;23.67;;
21480;SDS011;10902;48.158;8.634;2022-12-18T06:38:40;55.88;;;23.58;;
21480;SDS011;10902;48.158;8.634;2022-12-18T06:41:07;57.65;;;23.05;;
21480;SDS011;10902;48.158;8.634;2022-12-18T06:43:34;57.95;;;23.80;;
21480;SDS011;10902;48.158;8.634;2022-12-18T06:45:59;62.10;;;24.38;;
21480;SDS011;10902;48.158;8.634;2022-12-18T06:48:26;57.25;;;23.23;;
21480;SDS011;10902;48.158;8.634;2022-12-18T06:50:52;57.42;;;24.05;;
21480;SDS011;10902;48.158;8.634;2022-12-18T06:53:17;67.03;;;24.70;;
21480;SDS011;10902;48.158;8.634;2022-12-18T06:55:43;66.15;;;25.20;;
21480;SDS011;10902;48.158;8.634;2022-12-18T06:58:08;59.35;;;23.63;;
21480;SDS011;10902;48.158;8.634;2022-12-18T07:00:34;57.45;;;23.70;;
21480;SDS011;10902;48.158;8.634;2022-12-18T07:02:59;63.28;;;25.17;;
21480;SDS011;10902;48.158;8.634;2022-12-18T07:05:25;61.90;;;24.10;;
21480;SDS011;10902;48.158;8.634;2022-12-18T07:07:51;62.17;;;22.92;;
21480;SDS011;10902;48.158;8.634;2022-12-18T07:10:16;58.50;;;23.60;;
21480;SDS011;10902;48.158;8.634;2022-12-18T07:12:42;58.75;;;24.52;;
21480;SDS011;10902;48.158;8.634;2022-12-18T07:15:08;64.38;;;25.75;;
21480;SDS011;10902;48.158;8.634;2022-12-18T07:17:33;58.08;;;23.92;;
21480;SDS011;10902;48.158;8.634;2022-12-18T07:19:59;67.38;;;24.50;;
21480;SDS011;10902;48.158;8.634;2022-12-18T07:22:25;59.08;;;23.75;;
21480;SDS011;10902;48.158;8.634;2022-12-18T07:24:50;62.88;;;25.40;;
21480;SDS011;10902;48.158;8.634;2022-12-18T07:27:16;60.42;;;24.23;;
21480;SDS011;10902;48.158;8.634;2022-12-18T07:29:42;64.25;;;24.92;;
21480;SDS011;10902;48.158;8.634;2022-12-18T07:32:07;59.70;;;25.17;;
21480;SDS011;10902;48.158;8.634;2022-12-18T07:34:33;57.35;;;24.25;;
21480;SDS011;10902;48.158;8.634;2022-12-18T07:36:59;66.90;;;25.00;;
21480;SDS011;10902;48.158;8.634;2022-12-18T07:39:24;59.78;;;24.48;;
21480;SDS011;10902;48.158;8.634;2022-12-18T07:41:50;66.28;;;25.50;;
21480;SDS011;10902;48.158;8.634;2022-12-18T07:44:34;61.20;;;24.33;;
21480;SDS011;10902;48.158;8.634;2022-12-18T07:47:00;62.13;;;25.92;;
21480;SDS011;10902;48.158;8.634;2022-12-18T07:49:25;56.75;;;23.38;;
21480;SDS011;10902;48.158;8.634;2022-12-18T07:51:51;60.15;;;24.25;;
21480;SDS011;10902;48.158;8.634;2022-12-18T07:54:18;61.20;;;25.10;;
21480;SDS011;10902;48.158;8.634;2022-12-18T07:56:44;62.25;;;24.00;;
21480;SDS011;10902;48.158;8.634;2022-12-18T07:59:09;54.83;;;22.90;;
21480;SDS011;10902;48.158;8.634;2022-12-18T08:01:35;60.28;;;24.45;;
21480;SDS011;10902;48.158;8.634;2022-12-18T08:04:00;59.60;;;25.20;;
21480;SDS011;10902;48.158;8.634;2022-12-18T08:06:26;58.47;;;23.58;;
21480;SDS011;10902;48.158;8.634;2022-12-18T08:08:52;60.08;;;24.13;;
21480;SDS011;10902;48.158;8.634;2022-12-18T08:11:19;57.53;;;24.40;;
21480;SDS011;10902;48.158;8.634;2022-12-18T08:13:45;57.95;;;25.17;;
21480;SDS011;10902;48.158;8.634;2022-12-18T08:16:10;62.78;;;24.65;;
21480;SDS011;10902;48.158;8.634;2022-12-18T08:18:36;60.60;;;24.90;;
21480;SDS011;10902;48.158;8.634;2022-12-18T08:23:35;66.68;;;27.27;;
21480;SDS011;10902;48.158;8.634;2022-12-18T08:26:02;61.25;;;24.33;;
21480;SDS011;10902;48.158;8.634;2022-12-18T08:28:28;58.38;;;24.65;;
21480;SDS011;10902;48.158;8.634;2022-12-18T08:30:53;65.43;;;25.38;;
21480;SDS011;10902;48.158;8.634;2022-12-18T08:33:19;66.13;;;26.85;;
21480;SDS011;10902;48.158;8.634;2022-12-18T08:35:44;64.10;;;26.48;;
21480;SDS011;10902;48.158;8.634;2022-12-18T08:38:10;58.42;;;23.85;;
21480;SDS011;10902;48.158;8.634;2022-12-18T08:40:35;59.85;;;26.10;;
21480;SDS011;10902;48.158;8.634;2022-12-18T08:43:01;60.38;;;24.27;;
21480;SDS011;10902;48.158;8.634;2022-12-18T08:45:45;57.30;;;23.73;;
21480;SDS011;10902;48.158;8.634;2022-12-18T08:48:10;57.13;;;23.33;;
21480;SDS011;10902;48.158;8.634;2022-12-18T08:50:36;54.60;;;24.25;;
21480;SDS011;10902;48.158;8.634;2022-12-18T08:53:01;55.17;;;24.13;;
21480;SDS011;10902;48.158;8.634;2022-12-18T08:55:27;54.33;;;23.52;;
21480;SDS011;10902;48.158;8.634;2022-12-18T08:57:53;54.97;;;24.33;;
21480;SDS011;10902;48.158;8.634;2022-12-18T09:00:18;50.53;;;22.40;;
21480;SDS011;10902;48.158;8.634;2022-12-18T09:02:44;58.17;;;25.90;;
21480;SDS011;10902;48.158;8.634;2022-12-18T09:05:10;53.38;;;23.63;;
21480;SDS011;10902;48.158;8.634;2022-12-18T09:07:36;51.58;;;22.73;;
21480;SDS011;10902;48.158;8.634;2022-12-18T09:10:02;52.78;;;24.05;;
21480;SDS011;10902;48.158;8.634;2022-12-18T09:12:28;52.70;;;23.50;;
21480;SDS011;10902;48.158;8.634;2022-12-18T09:14:53;53.00;;;24.90;;
21480;SDS011;10902;48.158;8.634;2022-12-18T09:17:19;56.40;;;24.58;;
21480;SDS011;10902;48.158;8.634;2022-12-18T09:19:44;53.47;;;22.92;;
21480;SDS011;10902;48.158;8.634;2022-12-18T09:22:10;50.15;;;22.75;;
21480;SDS011;10902;48.158;8.634;2022-12-18T09:24:36;52.38;;;25.25;;
21480;SDS011;10902;48.158;8.634;2022-12-18T09:27:01;55.35;;;23.85;;
21480;SDS011;10902;48.158;8.634;2022-12-18T09:29:27;62.25;;;25.67;;
21480;SDS011;10902;48.158;8.634;2022-12-18T09:31:53;57.30;;;23.27;;
21480;SDS011;10902;48.158;8.634;2022-12-18T09:34:18;55.25;;;25.38;;
21480;SDS011;10902;48.158;8.634;2022-12-18T09:36:46;58.05;;;25.13;;
21480;SDS011;10902;48.158;8.634;2022-12-18T09:39:12;58.90;;;25.67;;
21480;SDS011;10902;48.158;8.634;2022-12-18T09:46:37;55.90;;;23.85;;
21480;SDS011;10902;48.158;8.634;2022-12-18T09:49:11;58.47;;;25.58;;
21480;SDS011;10902;48.158;8.634;2022-12-18T09:51:42;55.97;;;24.10;;
21480;SDS011;10902;48.158;8.634;2022-12-18T09:54:12;57.75;;;24.02;;
21480;SDS011;10902;48.158;8.634;2022-12-18T09:56:43;57.97;;;24.90;;
21480;SDS011;10902;48.158;8.634;2022-12-18T09:59:21;57.13;;;25.45;;
21480;SDS011;10902;48.158;8.634;2022-12-18T10:01:51;56.47;;;24.77;;
21480;SDS011;10902;48.158;8.634;2022-12-18T10:04:16;56.63;;;25.75;;
21480;SDS011;10902;48.158;8.634;2022-12-18T10:07:26;57.78;;;26.42;;
21480;SDS011;10902;48.158;8.634;2022-12-18T10:09:44;56.22;;;23.50;;
21480;SDS011;10902;48.158;8.634;2022-12-18T10:15:06;57.33;;;25.15;;
21480;SDS011;10902;48.158;8.634;2022-12-18T10:17:43;57.05;;;25.45;;
21480;SDS011;10902;48.158;8.634;2022-12-18T10:25:40;54.70;;;24.20;;
21480;SDS011;10902;48.158;8.634;2022-12-18T10:28:18;52.45;;;24.83;;
21480;SDS011;10902;48.158;8.634;2022-12-18T10:30:45;55.20;;;26.42;;
21480;SDS011;10902;48.158;8.634;2022-12-18T10:33:21;52.53;;;24.33;;
21480;SDS011;10902;48.158;8.634;2022-12-18T10:35:51;58.63;;;26.58;;
21480;SDS011;10902;48.158;8.634;2022-12-18T10:40:51;57.15;;;26.02;;
21480;SDS011;10902;48.158;8.634;2022-12-18T10:43:34;57.50;;;26.05;;
21480;SDS011;10902;48.158;8.634;2022-12-18T10:48:33;54.67;;;26.33;;
21480;SDS011;10902;48.158;8.634;2022-12-18T10:51:01;55.50;;;26.77;;
21480;SDS011;10902;48.158;8.634;2022-12-18T10:53:29;57.17;;;27.38;;
21480;SDS011;10902;48.158;8.634;2022-12-18T10:55:57;57.72;;;27.08;;
21480;SDS011;10902;48.158;8.634;2022-12-18T11:03:45;53.40;;;25.50;;
21480;SDS011;10902;48.158;8.634;2022-12-18T11:06:23;54.10;;;26.77;;
21480;SDS011;10902;48.158;8.634;2022-12-18T11:11:29;52.83;;;24.67;;
21480;SDS011;10902;48.158;8.634;2022-12-18T11:16:24;57.80;;;27.38;;
21480;SDS011;10902;48.158;8.634;2022-12-18T11:18:51;50.22;;;23.80;;
21480;SDS011;10902;48.158;8.634;2022-12-18T11:21:17;52.40;;;25.70;;
21480;SDS011;10902;48.158;8.634;2022-12-18T11:23:46;55.03;;;26.20;;
21480;SDS011;10902;48.158;8.634;2022-12-18T11:26:16;54.60;;;26.73;;
21480;SDS011;10902;48.158;8.634;2022-12-18T11:31:34;55.63;;;27.25;;
21480;SDS011;10902;48.158;8.634;2022-12-18T11:34:01;52.65;;;25.20;;
21480;SDS011;10902;48.158;8.634;2022-12-18T11:36:48;52.22;;;24.75;;
21480;SDS011;10902;48.158;8.634;2022-12-18T11:41:52;49.13;;;26.25;;
21480;SDS011;10902;48.158;8.634;2022-12-18T11:44:50;58.70;;;27.20;;
21480;SDS011;10902;48.158;8.634;2022-12-18T11:47:32;53.67;;;26.48;;
21480;SDS011;10902;48.158;8.634;2022-12-18T11:50:10;54.80;;;26.45;;
21480;SDS011;10902;48.158;8.634;2022-12-18T11:52:40;49.10;;;25.23;;
21480;SDS011;10902;48.158;8.634;2022-12-18T11:55:16;52.95;;;25.80;;
21480;SDS011;10902;48.158;8.634;2022-12-18T11:58:18;50.47;;;25.55;;
21480;SDS011;10902;48.158;8.634;2022-12-18T12:00:54;53.20;;;27.25;;
21480;SDS011;10902;48.158;8.634;2022-12-18T12:12:15;54.45;;;25.58;;
21480;SDS011;10902;48.158;8.634;2022-12-18T12:17:41;56.03;;;27.00;;
21480;SDS011;10902;48.158;8.634;2022-12-18T12:20:21;50.47;;;25.08;;
21480;SDS011;10902;48.158;8.634;2022-12-18T12:25:49;56.05;;;26.50;;
21480;SDS011;10902;48.158;8.634;2022-12-18T12:28:32;58.13;;;27.00;;
21480;SDS011;10902;48.158;8.634;2022-12-18T12:31:33;56.40;;;26.10;;
21480;SDS011;10902;48.158;8.634;2022-12-18T12:34:24;58.45;;;27.23;;
21480;SDS011;10902;48.158;8.634;2022-12-18T12:37:01;57.08;;;26.02;;
21480;SDS011;10902;48.158;8.634;2022-12-18T12:39:50;52.40;;;25.48;;
21480;SDS011;10902;48.158;8.634;2022-12-18T12:43:01;53.22;;;25.02;;
21480;SDS011;10902;48.158;8.634;2022-12-18T12:45:33;56.30;;;25.50;;
21480;SDS011;10902;48.158;8.634;2022-12-18T12:48:05;57.88;;;26.08;;
21480;SDS011;10902;48.158;8.634;2022-12-18T12:50:39;56.40;;;27.52;;
21480;SDS011;10902;48.158;8.634;2022-12-18T12:53:06;56.65;;;27.42;;
21480;SDS011;10902;48.158;8.634;2022-12-18T12:55:36;54.83;;;26.67;;
21480;SDS011;10902;48.158;8.634;2022-12-18T13:00:50;56.28;;;26.80;;
21480;SDS011;10902;48.158;8.634;2022-12-18T13:06:46;53.30;;;25.92;;
21480;SDS011;10902;48.158;8.634;2022-12-18T13:09:13;55.78;;;27.55;;
21480;SDS011;10902;48.158;8.634;2022-12-18T13:11:40;53.65;;;25.77;;
21480;SDS011;10902;48.158;8.634;2022-12-18T13:14:29;58.70;;;27.55;;
21480;SDS011;10902;48.158;8.634;2022-12-18T13:17:16;57.63;;;26.40;;
21480;SDS011;10902;48.158;8.634;2022-12-18T13:19:47;55.05;;;26.92;;
21480;SDS011;10902;48.158;8.634;2022-12-18T13:22:31;60.85;;;28.42;;
21480;SDS011;10902;48.158;8.634;2022-12-18T13:25:04;61.97;;;28.98;;
21480;SDS011;10902;48.158;8.634;2022-12-18T13:28:08;57.50;;;26.42;;
21480;SDS011;10902;48.158;8.634;2022-12-18T13:30:55;60.00;;;29.50;;
21480;SDS011;10902;48.158;8.634;2022-12-18T13:38:23;60.45;;;29.77;;
21480;SDS011;10902;48.158;8.634;2022-12-18T13:40:59;59.15;;;27.42;;
21480;SDS011;10902;48.158;8.634;2022-12-18T13:46:44;63.00;;;27.55;;
21480;SDS011;10902;48.158;8.634;2022-12-18T13:51:38;70.68;;;30.30;;
21480;SDS011;10902;48.158;8.634;2022-12-18T13:57:04;65.10;;;29.27;;
21480;SDS011;10902;48.158;8.634;2022-12-18T13:59:49;65.05;;;29.15;;
21480;SDS011;10902;48.158;8.634;2022-12-18T14:02:17;66.50;;;31.45;;
21480;SDS011;10902;48.158;8.634;2022-12-18T14:04:46;67.68;;;31.23;;
21480;SDS011;10902;48.158;8.634;2022-12-18T14:09:51;68.70;;;31.55;;
21480;SDS011;10902;48.158;8.634;2022-12-18T14:12:29;68.63;;;30.42;;
21480;SDS011;10902;48.158;8.634;2022-12-18T14:17:41;70.90;;;30.70;;
21480;SDS011;10902;48.158;8.634;2022-12-18T14:20:12;69.25;;;31.00;;
21480;SDS011;10902;48.158;8.634;2022-12-18T14:22:39;66.20;;;29.65;;
21480;SDS011;10902;48.158;8.634;2022-12-18T14:25:14;62.72;;;29.23;;
21480;SDS011;10902;48.158;8.634;2022-12-18T14:27:44;68.88;;;30.50;;
21480;SDS011;10902;48.158;8.634;2022-12-18T14:35:33;68.32;;;30.58;;
21480;SDS011;10902;48.158;8.634;2022-12-18T14:40:52;71.75;;;31.17;;
21480;SDS011;10902;48.158;8.634;2022-12-18T14:43:26;68.53;;;30.75;;
21480;SDS011;10902;48.158;8.634;2022-12-18T14:45:53;67.22;;;29.75;;
21480;SDS011;10902;48.158;8.634;2022-12-18T14:48:21;68.85;;;31.38;;
21480;SDS011;10902;48.158;8.634;2022-12-18T14:51:14;68.65;;;30.33;;
21480;SDS011;10902;48.158;8.634;2022-12-18T14:53:47;70.38;;;30.35;;
21480;SDS011;10902;48.158;8.634;2022-12-18T14:58:49;73.97;;;31.60;;
21480;SDS011;10902;48.158;8.634;2022-12-18T15:03:54;77.18;;;32.30;;
21480;SDS011;10902;48.158;8.634;2022-12-18T15:06:26;76.20;;;31.58;;
21480;SDS011;10902;48.158;8.634;2022-12-18T15:08:54;74.53;;;32.30;;
21480;SDS011;10902;48.158;8.634;2022-12-18T15:16:55;76.82;;;32.05;;
21480;SDS011;10902;48.158;8.634;2022-12-18T15:19:32;76.03;;;32.25;;
21480;SDS011;10902;48.158;8.634;2022-12-18T15:21:57;72.00;;;31.20;;
21480;SDS011;10902;48.158;8.634;2022-12-18T15:24:26;81.93;;;33.33;;
21480;SDS011;10902;48.158;8.634;2022-12-18T15:26:55;75.90;;;31.75;;
21480;SDS011;10902;48.158;8.634;2022-12-18T15:29:24;80.28;;;32.47;;
21480;SDS011;10902;48.158;8.634;2022-12-18T15:32:04;81.03;;;32.08;;
21480;SDS011;10902;48.158;8.634;2022-12-18T15:34:40;73.70;;;31.38;;
21480;SDS011;10902;48.158;8.634;2022-12-18T15:37:06;75.00;;;31.67;;
21480;SDS011;10902;48.158;8.634;2022-12-18T15:39:32;84.30;;;34.40;;
21480;SDS011;10902;48.158;8.634;2022-12-18T15:42:00;75.70;;;32.58;;
21480;SDS011;10902;48.158;8.634;2022-12-18T15:44:45;82.30;;;33.13;;
21480;SDS011;10902;48.158;8.634;2022-12-18T15:47:11;75.57;;;32.10;;
21480;SDS011;10902;48.158;8.634;2022-12-18T15:49:37;79.95;;;32.78;;
21480;SDS011;10902;48.158;8.634;2022-12-18T15:52:03;73.88;;;31.45;;
21480;SDS011;10902;48.158;8.634;2022-12-18T15:54:29;84.22;;;34.63;;
21480;SDS011;10902;48.158;8.634;2022-12-18T15:57:13;76.07;;;31.77;;
21480;SDS011;10902;48.158;8.634;2022-12-18T15:59:47;81.72;;;34.70;;
21480;SDS011;10902;48.158;8.634;2022-12-18T16:02:14;77.68;;;32.38;;
21480;SDS011;10902;48.158;8.634;2022-12-18T16:04:42;82.35;;;33.38;;
21480;SDS011;10902;48.158;8.634;2022-12-18T16:07:08;74.53;;;31.80;;
21480;SDS011;10902;48.158;8.634;2022-12-18T16:09:34;86.68;;;34.53;;
21480;SDS011;10902;48.158;8.634;2022-12-18T16:12:00;78.63;;;33.03;;
21480;SDS011;10902;48.158;8.634;2022-12-18T16:14:26;86.22;;;34.17;;
21480;SDS011;10902;48.158;8.634;2022-12-18T16:16:55;84.25;;;32.88;;
21480;SDS011;10902;48.158;8.634;2022-12-18T16:19:22;83.80;;;34.28;;
21480;SDS011;10902;48.158;8.634;2022-12-18T16:21:48;80.30;;;35.45;;
21480;SDS011;10902;48.158;8.634;2022-12-18T16:24:16;77.53;;;33.75;;
21480;SDS011;10902;48.158;8.634;2022-12-18T16:26:44;86.28;;;35.85;;
21480;SDS011;10902;48.158;8.634;2022-12-18T16:29:10;83.13;;;34.97;;
21480;SDS011;10902;48.158;8.634;2022-12-18T16:31:36;87.10;;;34.90;;
21480;SDS011;10902;48.158;8.634;2022-12-18T16:34:22;85.10;;;35.45;;